sensor_id;sensor_type;location;lat;lon;timestamp;P1;durP1;ratioP1;P2;durP2;ratioP2
1991;SDS011;997;48.448;8.924;2024-01-07T00:01:48;16.10;;;13.40;;
1991;SDS011;997;48.448;8.924;2024-01-07T00:04:14;16.97;;;15.27;;
1991;SDS011;997;48.448;8.924;2024-01-07T00:06:40;15.43;;;12.87;;
1991;SDS011;997;48.448;8.924;2024-01-07T00:09:06;16.00;;;13.60;;
1991;SDS011;997;48.448;8.924;2024-01-07T00:11:32;15.90;;;12.67;;
1991;SDS011;997;48.448;8.924;2024-01-07T00:13:58;17.20;;;13.10;;
1991;SDS011;997;48.448;8.924;2024-01-07T00:16:23;15.67;;;14.03;;
1991;SDS011;997;48.448;8.924;2024-01-07T00:18:49;15.60;;;12.27;;
1991;SDS011;997;48.448;8.924;2024-01-07T00:21:14;14.70;;;12.10;;
1991;SDS011;997;48.448;8.924;2024-01-07T00:23:40;13.90;;;11.80;;
1991;SDS011;997;48.448;8.924;2024-01-07T00:26:06;17.40;;;13.43;;
1991;SDS011;997;48.448;8.924;2024-01-07T00:28:32;16.77;;;14.23;;
1991;SDS011;997;48.448;8.924;2024-01-07T00:30:57;15.50;;;12.67;;
1991;SDS011;997;48.448;8.924;2024-01-07T00:33:23;16.57;;;12.77;;
1991;SDS011;997;48.448;8.924;2024-01-07T00:35:49;18.50;;;13.17;;
1991;SDS011;997;48.448;8.924;2024-01-07T00:38:14;15.83;;;13.47;;
1991;SDS011;997;48.448;8.924;2024-01-07T00:40:40;13.60;;;12.23;;
1991;SDS011;997;48.448;8.924;2024-01-07T00:43:06;15.30;;;13.70;;
1991;SDS011;997;48.448;8.924;2024-01-07T00:45:31;13.20;;;11.50;;
1991;SDS011;997;48.448;8.924;2024-01-07T00:47:57;18.63;;;13.30;;
1991;SDS011;997;48.448;8.924;2024-01-07T00:50:22;15.20;;;13.70;;
1991;SDS011;997;48.448;8.924;2024-01-07T00:52:48;14.20;;;12.53;;
1991;SDS011;997;48.448;8.924;2024-01-07T00:55:14;18.90;;;13.67;;
1991;SDS011;997;48.448;8.924;2024-01-07T00:57:39;18.73;;;14.50;;
1991;SDS011;997;48.448;8.924;2024-01-07T01:00:06;15.17;;;13.17;;
1991;SDS011;997;48.448;8.924;2024-01-07T01:02:32;13.30;;;11.90;;
1991;SDS011;997;48.448;8.924;2024-01-07T01:04:58;18.53;;;13.63;;
1991;SDS011;997;48.448;8.924;2024-01-07T01:07:24;14.27;;;11.73;;
1991;SDS011;997;48.448;8.924;2024-01-07T01:09:50;17.17;;;13.13;;
1991;SDS011;997;48.448;8.924;2024-01-07T01:12:15;15.70;;;14.00;;
1991;SDS011;997;48.448;8.924;2024-01-07T01:14:41;16.20;;;14.10;;
1991;SDS011;997;48.448;8.924;2024-01-07T01:17:07;16.00;;;13.50;;
1991;SDS011;997;48.448;8.924;2024-01-07T01:19:32;16.30;;;13.37;;
1991;SDS011;997;48.448;8.924;2024-01-07T01:21:59;16.53;;;13.83;;
1991;SDS011;997;48.448;8.924;2024-01-07T01:24:25;15.77;;;12.73;;
1991;SDS011;997;48.448;8.924;2024-01-07T01:26:50;14.23;;;12.67;;
1991;SDS011;997;48.448;8.924;2024-01-07T01:29:16;21.13;;;14.73;;
1991;SDS011;997;48.448;8.924;2024-01-07T01:31:41;16.67;;;14.17;;
1991;SDS011;997;48.448;8.924;2024-01-07T01:34:07;13.60;;;12.20;;
1991;SDS011;997;48.448;8.924;2024-01-07T01:36:33;16.83;;;15.03;;
1991;SDS011;997;48.448;8.924;2024-01-07T01:38:59;15.07;;;12.07;;
1991;SDS011;997;48.448;8.924;2024-01-07T01:41:24;16.07;;;13.50;;
1991;SDS011;997;48.448;8.924;2024-01-07T01:43:50;14.20;;;12.70;;
1991;SDS011;997;48.448;8.924;2024-01-07T01:46:16;14.23;;;12.73;;
1991;SDS011;997;48.448;8.924;2024-01-07T01:48:42;13.97;;;11.93;;
1991;SDS011;997;48.448;8.924;2024-01-07T01:51:08;16.33;;;12.00;;
1991;SDS011;997;48.448;8.924;2024-01-07T01:53:34;12.67;;;11.43;;
1991;SDS011;997;48.448;8.924;2024-01-07T01:56:00;13.80;;;12.40;;
1991;SDS011;997;48.448;8.924;2024-01-07T01:58:29;13.93;;;12.50;;
1991;SDS011;997;48.448;8.924;2024-01-07T02:00:56;12.40;;;11.20;;
1991;SDS011;997;48.448;8.924;2024-01-07T02:03:21;13.83;;;12.43;;
1991;SDS011;997;48.448;8.924;2024-01-07T02:05:48;15.43;;;12.67;;
1991;SDS011;997;48.448;8.924;2024-01-07T02:08:14;13.57;;;12.17;;
1991;SDS011;997;48.448;8.924;2024-01-07T02:10:41;14.00;;;11.03;;
1991;SDS011;997;48.448;8.924;2024-01-07T02:13:07;12.43;;;10.93;;
1991;SDS011;997;48.448;8.924;2024-01-07T02:15:32;13.17;;;11.83;;
1991;SDS011;997;48.448;8.924;2024-01-07T02:17:59;13.27;;;11.87;;
1991;SDS011;997;48.448;8.924;2024-01-07T02:20:25;13.40;;;11.20;;
1991;SDS011;997;48.448;8.924;2024-01-07T02:22:51;10.47;;;9.30;;
1991;SDS011;997;48.448;8.924;2024-01-07T02:25:16;14.80;;;12.80;;
1991;SDS011;997;48.448;8.924;2024-01-07T02:27:42;12.60;;;9.80;;
1991;SDS011;997;48.448;8.924;2024-01-07T02:30:08;11.77;;;10.30;;
1991;SDS011;997;48.448;8.924;2024-01-07T02:32:34;13.47;;;10.50;;
1991;SDS011;997;48.448;8.924;2024-01-07T02:35:01;11.63;;;10.13;;
1991;SDS011;997;48.448;8.924;2024-01-07T02:37:27;13.50;;;10.80;;
1991;SDS011;997;48.448;8.924;2024-01-07T02:39:52;14.70;;;10.93;;
1991;SDS011;997;48.448;8.924;2024-01-07T02:42:18;14.20;;;11.07;;
1991;SDS011;997;48.448;8.924;2024-01-07T02:44:44;12.43;;;10.27;;
1991;SDS011;997;48.448;8.924;2024-01-07T02:47:09;12.47;;;11.27;;
1991;SDS011;997;48.448;8.924;2024-01-07T02:49:35;14.53;;;11.07;;
1991;SDS011;997;48.448;8.924;2024-01-07T02:52:01;13.00;;;11.10;;
1991;SDS011;997;48.448;8.924;2024-01-07T02:54:26;14.30;;;12.03;;
1991;SDS011;997;48.448;8.924;2024-01-07T02:56:52;14.23;;;11.17;;
1991;SDS011;997;48.448;8.924;2024-01-07T02:59:18;10.40;;;9.13;;
1991;SDS011;997;48.448;8.924;2024-01-07T03:01:43;13.73;;;10.53;;
1991;SDS011;997;48.448;8.924;2024-01-07T03:04:12;14.50;;;11.27;;
1991;SDS011;997;48.448;8.924;2024-01-07T03:06:38;11.17;;;10.00;;
1991;SDS011;997;48.448;8.924;2024-01-07T03:09:04;13.80;;;10.00;;
1991;SDS011;997;48.448;8.924;2024-01-07T03:11:30;12.70;;;10.40;;
1991;SDS011;997;48.448;8.924;2024-01-07T03:13:56;14.80;;;10.47;;
1991;SDS011;997;48.448;8.924;2024-01-07T03:16:22;13.67;;;10.40;;
1991;SDS011;997;48.448;8.924;2024-01-07T03:18:48;13.47;;;10.50;;
1991;SDS011;997;48.448;8.924;2024-01-07T03:21:18;11.70;;;9.10;;
1991;SDS011;997;48.448;8.924;2024-01-07T03:23:44;12.60;;;10.30;;
1991;SDS011;997;48.448;8.924;2024-01-07T03:26:10;13.20;;;10.43;;
1991;SDS011;997;48.448;8.924;2024-01-07T03:28:36;16.00;;;11.53;;
1991;SDS011;997;48.448;8.924;2024-01-07T03:31:07;11.33;;;8.53;;
1991;SDS011;997;48.448;8.924;2024-01-07T03:33:37;13.90;;;10.00;;
1991;SDS011;997;48.448;8.924;2024-01-07T03:36:07;11.13;;;9.60;;
1991;SDS011;997;48.448;8.924;2024-01-07T03:38:33;12.97;;;11.57;;
1991;SDS011;997;48.448;8.924;2024-01-07T03:40:59;17.03;;;12.87;;
1991;SDS011;997;48.448;8.924;2024-01-07T03:43:25;12.67;;;10.57;;
1991;SDS011;997;48.448;8.924;2024-01-07T03:45:50;19.60;;;12.97;;
1991;SDS011;997;48.448;8.924;2024-01-07T03:48:16;14.10;;;11.43;;
1991;SDS011;997;48.448;8.924;2024-01-07T03:50:42;17.60;;;13.03;;
1991;SDS011;997;48.448;8.924;2024-01-07T03:53:08;15.67;;;10.83;;
1991;SDS011;997;48.448;8.924;2024-01-07T03:55:34;14.97;;;12.10;;
1991;SDS011;997;48.448;8.924;2024-01-07T03:57:59;21.03;;;13.60;;
1991;SDS011;997;48.448;8.924;2024-01-07T04:00:25;17.80;;;13.47;;
1991;SDS011;997;48.448;8.924;2024-01-07T04:02:51;12.80;;;10.40;;
1991;SDS011;997;48.448;8.924;2024-01-07T04:05:16;12.43;;;9.90;;
1991;SDS011;997;48.448;8.924;2024-01-07T04:07:42;13.30;;;11.27;;
1991;SDS011;997;48.448;8.924;2024-01-07T04:10:08;13.13;;;10.47;;
1991;SDS011;997;48.448;8.924;2024-01-07T04:12:34;13.80;;;11.87;;
1991;SDS011;997;48.448;8.924;2024-01-07T04:14:59;10.47;;;9.37;;
1991;SDS011;997;48.448;8.924;2024-01-07T04:17:25;10.50;;;7.97;;
1991;SDS011;997;48.448;8.924;2024-01-07T04:19:51;10.10;;;8.80;;
1991;SDS011;997;48.448;8.924;2024-01-07T04:22:17;10.60;;;7.13;;
1991;SDS011;997;48.448;8.924;2024-01-07T04:24:43;11.00;;;8.30;;
1991;SDS011;997;48.448;8.924;2024-01-07T04:27:08;11.47;;;9.20;;
1991;SDS011;997;48.448;8.924;2024-01-07T04:29:35;9.60;;;8.10;;
1991;SDS011;997;48.448;8.924;2024-01-07T04:32:00;7.60;;;6.90;;
1991;SDS011;997;48.448;8.924;2024-01-07T04:34:26;9.90;;;7.90;;
1991;SDS011;997;48.448;8.924;2024-01-07T04:36:52;7.67;;;6.50;;
1991;SDS011;997;48.448;8.924;2024-01-07T04:39:17;8.87;;;7.33;;
1991;SDS011;997;48.448;8.924;2024-01-07T04:41:43;10.73;;;9.57;;
1991;SDS011;997;48.448;8.924;2024-01-07T04:44:09;9.37;;;7.40;;
1991;SDS011;997;48.448;8.924;2024-01-07T04:46:34;8.93;;;7.90;;
1991;SDS011;997;48.448;8.924;2024-01-07T04:49:03;10.10;;;8.20;;
1991;SDS011;997;48.448;8.924;2024-01-07T04:51:28;10.90;;;8.73;;
1991;SDS011;997;48.448;8.924;2024-01-07T04:53:54;13.73;;;10.87;;
1991;SDS011;997;48.448;8.924;2024-01-07T04:56:20;13.93;;;11.40;;
1991;SDS011;997;48.448;8.924;2024-01-07T04:58:45;16.97;;;11.90;;
1991;SDS011;997;48.448;8.924;2024-01-07T05:01:11;13.43;;;11.30;;
1991;SDS011;997;48.448;8.924;2024-01-07T05:03:37;12.03;;;10.77;;
1991;SDS011;997;48.448;8.924;2024-01-07T05:06:03;13.50;;;11.23;;
1991;SDS011;997;48.448;8.924;2024-01-07T05:08:29;16.40;;;10.43;;
1991;SDS011;997;48.448;8.924;2024-01-07T05:10:55;14.60;;;10.27;;
1991;SDS011;997;48.448;8.924;2024-01-07T05:13:21;13.20;;;10.43;;
1991;SDS011;997;48.448;8.924;2024-01-07T05:15:47;12.00;;;10.30;;
1991;SDS011;997;48.448;8.924;2024-01-07T05:18:20;11.37;;;9.47;;
1991;SDS011;997;48.448;8.924;2024-01-07T05:20:49;11.63;;;10.43;;
1991;SDS011;997;48.448;8.924;2024-01-07T05:23:15;14.73;;;11.20;;
1991;SDS011;997;48.448;8.924;2024-01-07T05:25:44;14.07;;;10.83;;
1991;SDS011;997;48.448;8.924;2024-01-07T05:28:11;14.17;;;11.10;;
1991;SDS011;997;48.448;8.924;2024-01-07T05:30:38;15.00;;;11.43;;
1991;SDS011;997;48.448;8.924;2024-01-07T05:33:03;14.30;;;12.30;;
1991;SDS011;997;48.448;8.924;2024-01-07T05:35:29;20.83;;;12.80;;
1991;SDS011;997;48.448;8.924;2024-01-07T05:37:56;15.17;;;12.57;;
1991;SDS011;997;48.448;8.924;2024-01-07T05:40:21;17.00;;;13.77;;
1991;SDS011;997;48.448;8.924;2024-01-07T05:42:47;16.80;;;12.93;;
1991;SDS011;997;48.448;8.924;2024-01-07T05:45:13;10.93;;;9.00;;
1991;SDS011;997;48.448;8.924;2024-01-07T05:47:39;17.33;;;13.73;;
1991;SDS011;997;48.448;8.924;2024-01-07T05:50:06;17.73;;;15.00;;
1991;SDS011;997;48.448;8.924;2024-01-07T05:52:32;15.70;;;13.90;;
1991;SDS011;997;48.448;8.924;2024-01-07T05:54:58;19.30;;;14.63;;
1991;SDS011;997;48.448;8.924;2024-01-07T05:57:23;15.20;;;12.80;;
1991;SDS011;997;48.448;8.924;2024-01-07T05:59:49;15.87;;;14.27;;
1991;SDS011;997;48.448;8.924;2024-01-07T06:02:17;14.93;;;13.13;;
1991;SDS011;997;48.448;8.924;2024-01-07T06:04:43;16.73;;;13.97;;
1991;SDS011;997;48.448;8.924;2024-01-07T06:07:09;14.60;;;13.10;;
1991;SDS011;997;48.448;8.924;2024-01-07T06:09:34;15.70;;;13.80;;
1991;SDS011;997;48.448;8.924;2024-01-07T06:12:00;14.67;;;13.27;;
1991;SDS011;997;48.448;8.924;2024-01-07T06:14:26;14.43;;;12.93;;
1991;SDS011;997;48.448;8.924;2024-01-07T06:16:52;17.70;;;13.63;;
1991;SDS011;997;48.448;8.924;2024-01-07T06:19:18;15.93;;;13.73;;
1991;SDS011;997;48.448;8.924;2024-01-07T06:21:44;15.30;;;13.47;;
1991;SDS011;997;48.448;8.924;2024-01-07T06:24:10;15.60;;;12.13;;
1991;SDS011;997;48.448;8.924;2024-01-07T06:26:36;14.17;;;12.30;;
1991;SDS011;997;48.448;8.924;2024-01-07T06:29:02;14.77;;;12.53;;
1991;SDS011;997;48.448;8.924;2024-01-07T06:31:27;14.47;;;13.03;;
1991;SDS011;997;48.448;8.924;2024-01-07T06:33:53;14.73;;;13.33;;
1991;SDS011;997;48.448;8.924;2024-01-07T06:36:22;16.00;;;13.23;;
1991;SDS011;997;48.448;8.924;2024-01-07T06:38:49;14.37;;;12.80;;
1991;SDS011;997;48.448;8.924;2024-01-07T06:41:14;16.30;;;13.17;;
1991;SDS011;997;48.448;8.924;2024-01-07T06:43:40;15.73;;;13.10;;
1991;SDS011;997;48.448;8.924;2024-01-07T06:46:06;15.60;;;12.50;;
1991;SDS011;997;48.448;8.924;2024-01-07T06:48:31;16.20;;;13.87;;
1991;SDS011;997;48.448;8.924;2024-01-07T06:50:57;13.27;;;11.53;;
1991;SDS011;997;48.448;8.924;2024-01-07T06:53:23;14.43;;;13.00;;
1991;SDS011;997;48.448;8.924;2024-01-07T06:55:49;12.70;;;11.57;;
1991;SDS011;997;48.448;8.924;2024-01-07T06:58:14;15.40;;;13.90;;
1991;SDS011;997;48.448;8.924;2024-01-07T07:00:40;13.80;;;12.40;;
1991;SDS011;997;48.448;8.924;2024-01-07T07:03:06;13.30;;;10.67;;
1991;SDS011;997;48.448;8.924;2024-01-07T07:05:32;13.77;;;11.70;;
1991;SDS011;997;48.448;8.924;2024-01-07T07:07:58;11.40;;;10.17;;
1991;SDS011;997;48.448;8.924;2024-01-07T07:10:24;14.50;;;11.13;;
1991;SDS011;997;48.448;8.924;2024-01-07T07:12:50;11.37;;;10.27;;
1991;SDS011;997;48.448;8.924;2024-01-07T07:15:16;13.13;;;11.90;;
1991;SDS011;997;48.448;8.924;2024-01-07T07:17:42;14.43;;;12.10;;
1991;SDS011;997;48.448;8.924;2024-01-07T07:20:08;13.43;;;12.07;;
1991;SDS011;997;48.448;8.924;2024-01-07T07:22:34;13.50;;;12.10;;
1991;SDS011;997;48.448;8.924;2024-01-07T07:25:00;13.97;;;12.30;;
1991;SDS011;997;48.448;8.924;2024-01-07T07:27:25;10.87;;;9.87;;
1991;SDS011;997;48.448;8.924;2024-01-07T07:29:51;12.60;;;11.30;;
1991;SDS011;997;48.448;8.924;2024-01-07T07:32:17;12.90;;;11.80;;
1991;SDS011;997;48.448;8.924;2024-01-07T07:34:43;13.43;;;12.03;;
1991;SDS011;997;48.448;8.924;2024-01-07T07:37:08;12.60;;;11.40;;
1991;SDS011;997;48.448;8.924;2024-01-07T07:39:35;12.90;;;11.60;;
1991;SDS011;997;48.448;8.924;2024-01-07T07:42:00;12.73;;;11.13;;
1991;SDS011;997;48.448;8.924;2024-01-07T07:44:26;13.10;;;11.20;;
1991;SDS011;997;48.448;8.924;2024-01-07T07:46:52;12.40;;;10.63;;
1991;SDS011;997;48.448;8.924;2024-01-07T07:49:17;13.87;;;12.47;;
1991;SDS011;997;48.448;8.924;2024-01-07T07:51:43;13.63;;;12.23;;
1991;SDS011;997;48.448;8.924;2024-01-07T07:54:09;14.57;;;12.60;;
1991;SDS011;997;48.448;8.924;2024-01-07T07:56:35;13.87;;;12.47;;
1991;SDS011;997;48.448;8.924;2024-01-07T07:59:01;14.30;;;12.90;;
1991;SDS011;997;48.448;8.924;2024-01-07T08:01:27;16.00;;;14.40;;
1991;SDS011;997;48.448;8.924;2024-01-07T08:03:53;14.50;;;13.07;;
1991;SDS011;997;48.448;8.924;2024-01-07T08:06:19;16.97;;;15.17;;
1991;SDS011;997;48.448;8.924;2024-01-07T08:08:44;14.53;;;13.03;;
1991;SDS011;997;48.448;8.924;2024-01-07T08:11:10;13.67;;;12.47;;
1991;SDS011;997;48.448;8.924;2024-01-07T08:13:37;14.37;;;12.90;;
1991;SDS011;997;48.448;8.924;2024-01-07T08:16:03;15.00;;;11.87;;
1991;SDS011;997;48.448;8.924;2024-01-07T08:18:30;14.20;;;12.90;;
1991;SDS011;997;48.448;8.924;2024-01-07T08:20:56;14.43;;;12.90;;
1991;SDS011;997;48.448;8.924;2024-01-07T08:23:22;15.20;;;13.60;;
1991;SDS011;997;48.448;8.924;2024-01-07T08:25:49;15.43;;;13.93;;
1991;SDS011;997;48.448;8.924;2024-01-07T08:28:16;16.00;;;14.50;;
1991;SDS011;997;48.448;8.924;2024-01-07T08:30:42;15.40;;;13.87;;
1991;SDS011;997;48.448;8.924;2024-01-07T08:33:07;14.63;;;13.23;;
1991;SDS011;997;48.448;8.924;2024-01-07T08:35:33;17.57;;;15.77;;
1991;SDS011;997;48.448;8.924;2024-01-07T08:37:59;16.07;;;14.57;;
1991;SDS011;997;48.448;8.924;2024-01-07T08:40:24;14.93;;;13.43;;
1991;SDS011;997;48.448;8.924;2024-01-07T08:42:50;13.50;;;12.10;;
1991;SDS011;997;48.448;8.924;2024-01-07T08:45:15;13.60;;;12.40;;
1991;SDS011;997;48.448;8.924;2024-01-07T08:47:41;16.33;;;14.60;;
1991;SDS011;997;48.448;8.924;2024-01-07T08:50:07;12.50;;;11.23;;
1991;SDS011;997;48.448;8.924;2024-01-07T08:52:33;15.00;;;13.50;;
1991;SDS011;997;48.448;8.924;2024-01-07T08:55:00;14.30;;;12.80;;
1991;SDS011;997;48.448;8.924;2024-01-07T08:57:27;15.13;;;12.07;;
1991;SDS011;997;48.448;8.924;2024-01-07T08:59:53;13.77;;;12.23;;
1991;SDS011;997;48.448;8.924;2024-01-07T09:02:18;13.93;;;12.67;;
1991;SDS011;997;48.448;8.924;2024-01-07T09:04:44;14.10;;;12.60;;
1991;SDS011;997;48.448;8.924;2024-01-07T09:07:10;14.93;;;13.30;;
1991;SDS011;997;48.448;8.924;2024-01-07T09:09:35;13.10;;;11.73;;
1991;SDS011;997;48.448;8.924;2024-01-07T09:12:01;12.67;;;11.17;;
1991;SDS011;997;48.448;8.924;2024-01-07T09:14:28;13.77;;;12.37;;
1991;SDS011;997;48.448;8.924;2024-01-07T09:16:55;13.17;;;11.90;;
1991;SDS011;997;48.448;8.924;2024-01-07T09:19:20;26.83;;;22.47;;
1991;SDS011;997;48.448;8.924;2024-01-07T09:21:46;13.23;;;12.10;;
1991;SDS011;997;48.448;8.924;2024-01-07T09:24:12;14.40;;;13.00;;
1991;SDS011;997;48.448;8.924;2024-01-07T09:26:37;13.43;;;12.13;;
1991;SDS011;997;48.448;8.924;2024-01-07T09:29:03;14.53;;;12.83;;
1991;SDS011;997;48.448;8.924;2024-01-07T09:31:29;15.30;;;13.70;;
1991;SDS011;997;48.448;8.924;2024-01-07T09:33:54;12.97;;;11.67;;
1991;SDS011;997;48.448;8.924;2024-01-07T09:36:20;14.30;;;12.70;;
1991;SDS011;997;48.448;8.924;2024-01-07T09:38:45;10.20;;;7.33;;
1991;SDS011;997;48.448;8.924;2024-01-07T09:41:11;11.80;;;10.67;;
1991;SDS011;997;48.448;8.924;2024-01-07T09:43:37;13.10;;;10.70;;
1991;SDS011;997;48.448;8.924;2024-01-07T09:46:03;11.70;;;10.50;;
1991;SDS011;997;48.448;8.924;2024-01-07T09:48:29;9.67;;;8.80;;
1991;SDS011;997;48.448;8.924;2024-01-07T09:50:55;13.90;;;12.60;;
1991;SDS011;997;48.448;8.924;2024-01-07T09:53:25;12.70;;;10.63;;
1991;SDS011;997;48.448;8.924;2024-01-07T09:56:12;10.60;;;8.70;;
1991;SDS011;997;48.448;8.924;2024-01-07T09:58:42;10.87;;;9.87;;
1991;SDS011;997;48.448;8.924;2024-01-07T10:01:08;12.00;;;9.67;;
1991;SDS011;997;48.448;8.924;2024-01-07T10:03:34;10.30;;;9.30;;
1991;SDS011;997;48.448;8.924;2024-01-07T10:06:00;10.80;;;9.80;;
1991;SDS011;997;48.448;8.924;2024-01-07T10:08:26;11.50;;;10.30;;
1991;SDS011;997;48.448;8.924;2024-01-07T10:10:51;11.83;;;10.70;;
1991;SDS011;997;48.448;8.924;2024-01-07T10:13:19;12.60;;;10.63;;
1991;SDS011;997;48.448;8.924;2024-01-07T10:15:46;12.37;;;11.17;;
1991;SDS011;997;48.448;8.924;2024-01-07T10:18:12;13.30;;;12.00;;
1991;SDS011;997;48.448;8.924;2024-01-07T10:20:39;12.93;;;10.27;;
1991;SDS011;997;48.448;8.924;2024-01-07T10:23:04;11.20;;;10.00;;
1991;SDS011;997;48.448;8.924;2024-01-07T10:25:32;12.87;;;11.23;;
1991;SDS011;997;48.448;8.924;2024-01-07T10:27:59;10.63;;;9.53;;
1991;SDS011;997;48.448;8.924;2024-01-07T10:30:25;10.90;;;9.67;;
1991;SDS011;997;48.448;8.924;2024-01-07T10:32:54;10.80;;;9.70;;
1991;SDS011;997;48.448;8.924;2024-01-07T10:35:22;9.43;;;8.40;;
1991;SDS011;997;48.448;8.924;2024-01-07T10:37:52;11.80;;;9.17;;
1991;SDS011;997;48.448;8.924;2024-01-07T10:40:18;9.03;;;7.93;;
1991;SDS011;997;48.448;8.924;2024-01-07T10:42:44;11.17;;;8.67;;
1991;SDS011;997;48.448;8.924;2024-01-07T10:45:10;10.97;;;9.20;;
1991;SDS011;997;48.448;8.924;2024-01-07T10:47:36;8.97;;;7.93;;
1991;SDS011;997;48.448;8.924;2024-01-07T10:50:05;8.40;;;7.57;;
1991;SDS011;997;48.448;8.924;2024-01-07T10:52:33;8.27;;;7.33;;
1991;SDS011;997;48.448;8.924;2024-01-07T10:55:07;8.37;;;7.63;;
1991;SDS011;997;48.448;8.924;2024-01-07T10:57:45;10.17;;;8.07;;
1991;SDS011;997;48.448;8.924;2024-01-07T11:00:15;7.53;;;6.90;;
1991;SDS011;997;48.448;8.924;2024-01-07T11:05:36;9.23;;;8.40;;
1991;SDS011;997;48.448;8.924;2024-01-07T11:08:06;8.87;;;7.23;;
1991;SDS011;997;48.448;8.924;2024-01-07T11:10:44;6.73;;;6.10;;
1991;SDS011;997;48.448;8.924;2024-01-07T11:13:31;7.93;;;7.13;;
1991;SDS011;997;48.448;8.924;2024-01-07T11:15:58;8.97;;;8.07;;
1991;SDS011;997;48.448;8.924;2024-01-07T11:18:24;9.57;;;8.67;;
1991;SDS011;997;48.448;8.924;2024-01-07T11:20:58;9.10;;;8.00;;
1991;SDS011;997;48.448;8.924;2024-01-07T11:23:34;12.93;;;9.10;;
1991;SDS011;997;48.448;8.924;2024-01-07T11:26:05;9.50;;;7.00;;
1991;SDS011;997;48.448;8.924;2024-01-07T11:28:44;8.30;;;7.50;;
1991;SDS011;997;48.448;8.924;2024-01-07T11:31:11;7.67;;;7.03;;
1991;SDS011;997;48.448;8.924;2024-01-07T11:33:37;8.60;;;7.57;;
1991;SDS011;997;48.448;8.924;2024-01-07T11:36:06;7.70;;;6.53;;
1991;SDS011;997;48.448;8.924;2024-01-07T11:38:33;8.53;;;7.57;;
1991;SDS011;997;48.448;8.924;2024-01-07T11:41:02;8.20;;;7.37;;
1991;SDS011;997;48.448;8.924;2024-01-07T11:43:30;8.47;;;7.63;;
1991;SDS011;997;48.448;8.924;2024-01-07T11:45:56;10.20;;;8.03;;
1991;SDS011;997;48.448;8.924;2024-01-07T11:48:22;9.40;;;8.53;;
1991;SDS011;997;48.448;8.924;2024-01-07T11:50:47;9.40;;;8.50;;
1991;SDS011;997;48.448;8.924;2024-01-07T11:53:13;9.17;;;8.17;;
1991;SDS011;997;48.448;8.924;2024-01-07T11:55:38;9.90;;;9.00;;
1991;SDS011;997;48.448;8.924;2024-01-07T11:58:04;7.90;;;7.10;;
1991;SDS011;997;48.448;8.924;2024-01-07T12:00:33;7.70;;;7.00;;
1991;SDS011;997;48.448;8.924;2024-01-07T12:03:00;10.93;;;8.03;;
1991;SDS011;997;48.448;8.924;2024-01-07T12:05:29;8.17;;;7.37;;
1991;SDS011;997;48.448;8.924;2024-01-07T12:07:55;8.93;;;7.97;;
1991;SDS011;997;48.448;8.924;2024-01-07T12:10:22;7.87;;;7.07;;
1991;SDS011;997;48.448;8.924;2024-01-07T12:12:48;9.03;;;7.77;;
1991;SDS011;997;48.448;8.924;2024-01-07T12:15:16;9.37;;;8.47;;
1991;SDS011;997;48.448;8.924;2024-01-07T12:17:42;8.13;;;6.83;;
1991;SDS011;997;48.448;8.924;2024-01-07T12:20:14;10.20;;;9.00;;
1991;SDS011;997;48.448;8.924;2024-01-07T12:22:40;9.60;;;8.60;;
1991;SDS011;997;48.448;8.924;2024-01-07T12:25:06;8.70;;;7.80;;
1991;SDS011;997;48.448;8.924;2024-01-07T12:27:32;9.23;;;8.30;;
1991;SDS011;997;48.448;8.924;2024-01-07T12:29:59;9.30;;;8.30;;
1991;SDS011;997;48.448;8.924;2024-01-07T12:32:31;10.20;;;9.10;;
1991;SDS011;997;48.448;8.924;2024-01-07T12:34:58;9.80;;;8.80;;
1991;SDS011;997;48.448;8.924;2024-01-07T12:37:27;9.93;;;8.17;;
1991;SDS011;997;48.448;8.924;2024-01-07T12:39:53;8.63;;;7.73;;
1991;SDS011;997;48.448;8.924;2024-01-07T12:42:19;9.33;;;8.40;;
1991;SDS011;997;48.448;8.924;2024-01-07T12:44:47;7.57;;;6.97;;
1991;SDS011;997;48.448;8.924;2024-01-07T12:47:14;10.27;;;9.20;;
1991;SDS011;997;48.448;8.924;2024-01-07T12:49:39;10.43;;;8.97;;
1991;SDS011;997;48.448;8.924;2024-01-07T12:52:05;10.40;;;8.80;;
1991;SDS011;997;48.448;8.924;2024-01-07T12:54:31;8.60;;;7.80;;
1991;SDS011;997;48.448;8.924;2024-01-07T12:56:56;9.10;;;6.87;;
1991;SDS011;997;48.448;8.924;2024-01-07T12:59:22;8.83;;;7.90;;
1991;SDS011;997;48.448;8.924;2024-01-07T13:01:48;5.13;;;4.63;;
1991;SDS011;997;48.448;8.924;2024-01-07T13:04:16;9.37;;;7.97;;
1991;SDS011;997;48.448;8.924;2024-01-07T13:06:42;8.87;;;7.70;;
1991;SDS011;997;48.448;8.924;2024-01-07T13:09:07;8.57;;;7.77;;
1991;SDS011;997;48.448;8.924;2024-01-07T13:11:34;7.67;;;6.83;;
1991;SDS011;997;48.448;8.924;2024-01-07T13:14:00;9.20;;;8.30;;
1991;SDS011;997;48.448;8.924;2024-01-07T13:16:27;8.53;;;7.73;;
1991;SDS011;997;48.448;8.924;2024-01-07T13:18:53;9.57;;;8.07;;
1991;SDS011;997;48.448;8.924;2024-01-07T13:21:19;11.30;;;8.30;;
1991;SDS011;997;48.448;8.924;2024-01-07T13:23:45;9.23;;;8.30;;
1991;SDS011;997;48.448;8.924;2024-01-07T13:26:12;10.30;;;9.07;;
1991;SDS011;997;48.448;8.924;2024-01-07T13:28:38;10.07;;;9.10;;
1991;SDS011;997;48.448;8.924;2024-01-07T13:31:04;10.80;;;9.70;;
1991;SDS011;997;48.448;8.924;2024-01-07T13:33:31;9.90;;;8.90;;
1991;SDS011;997;48.448;8.924;2024-01-07T13:35:57;10.80;;;9.70;;
1991;SDS011;997;48.448;8.924;2024-01-07T13:38:23;9.80;;;8.80;;
1991;SDS011;997;48.448;8.924;2024-01-07T13:40:49;10.83;;;9.73;;
1991;SDS011;997;48.448;8.924;2024-01-07T13:43:15;9.30;;;8.47;;
1991;SDS011;997;48.448;8.924;2024-01-07T13:45:41;8.70;;;7.80;;
1991;SDS011;997;48.448;8.924;2024-01-07T13:48:06;10.13;;;9.13;;
1991;SDS011;997;48.448;8.924;2024-01-07T13:50:32;8.43;;;7.43;;
1991;SDS011;997;48.448;8.924;2024-01-07T13:52:58;11.07;;;9.90;;
1991;SDS011;997;48.448;8.924;2024-01-07T13:55:24;10.93;;;9.70;;
1991;SDS011;997;48.448;8.924;2024-01-07T13:57:50;10.57;;;9.47;;
1991;SDS011;997;48.448;8.924;2024-01-07T14:00:15;10.90;;;9.90;;
1991;SDS011;997;48.448;8.924;2024-01-07T14:02:43;12.20;;;11.00;;
1991;SDS011;997;48.448;8.924;2024-01-07T14:05:12;10.03;;;8.90;;
1991;SDS011;997;48.448;8.924;2024-01-07T14:07:38;9.30;;;8.33;;
1991;SDS011;997;48.448;8.924;2024-01-07T14:10:05;10.33;;;9.30;;
1991;SDS011;997;48.448;8.924;2024-01-07T14:12:32;11.93;;;10.83;;
1991;SDS011;997;48.448;8.924;2024-01-07T14:14:58;10.83;;;9.73;;
1991;SDS011;997;48.448;8.924;2024-01-07T14:17:24;10.70;;;9.70;;
1991;SDS011;997;48.448;8.924;2024-01-07T14:19:50;12.70;;;10.90;;
1991;SDS011;997;48.448;8.924;2024-01-07T14:22:18;8.80;;;7.80;;
1991;SDS011;997;48.448;8.924;2024-01-07T14:24:47;11.40;;;10.30;;
1991;SDS011;997;48.448;8.924;2024-01-07T14:27:14;11.53;;;10.47;;
1991;SDS011;997;48.448;8.924;2024-01-07T14:29:40;13.63;;;10.30;;
1991;SDS011;997;48.448;8.924;2024-01-07T14:32:06;11.83;;;10.67;;
1991;SDS011;997;48.448;8.924;2024-01-07T14:34:32;10.57;;;9.60;;
1991;SDS011;997;48.448;8.924;2024-01-07T14:36:58;11.23;;;10.13;;
1991;SDS011;997;48.448;8.924;2024-01-07T14:39:25;13.43;;;11.90;;
1991;SDS011;997;48.448;8.924;2024-01-07T14:41:51;13.10;;;11.67;;
1991;SDS011;997;48.448;8.924;2024-01-07T14:44:16;15.30;;;12.67;;
1991;SDS011;997;48.448;8.924;2024-01-07T14:46:42;12.57;;;10.33;;
1991;SDS011;997;48.448;8.924;2024-01-07T14:49:08;11.40;;;10.30;;
1991;SDS011;997;48.448;8.924;2024-01-07T14:51:33;12.60;;;11.40;;
1991;SDS011;997;48.448;8.924;2024-01-07T14:53:59;12.37;;;11.20;;
1991;SDS011;997;48.448;8.924;2024-01-07T14:56:25;13.10;;;11.90;;
1991;SDS011;997;48.448;8.924;2024-01-07T14:58:51;14.83;;;12.07;;
1991;SDS011;997;48.448;8.924;2024-01-07T15:01:17;11.83;;;10.63;;
1991;SDS011;997;48.448;8.924;2024-01-07T15:03:43;11.03;;;10.03;;
1991;SDS011;997;48.448;8.924;2024-01-07T15:06:09;14.10;;;12.70;;